• Join FlightAware (Why Join?)
  • Login
  • US Flag 
05:01PM EDT


 

Airport Tracker/Info


-or-


 

Live Flight TrackerFlight Track Log ✈ PDT4207 ✈ 30-Oct-2013 ✈ KPHL - KBGM

Flight Track Log - Related Links

Times and Time Zones

All times are in EDT time to prevent confusion due to time zone crossing. See the PDT4207 flight status page for this flight to view local times or setup timezone preferences in your user account.

Time Position Orientation Groundspeed Altitude Reporting Facility
EDT Latitude Longitude Course Direction KTS MPH feet Rate Location/Type
09:36PM 39.8833 -75.2000 311° West 122 140 600  Level Philadelphia TRACON
09:37PM 39.9000 -75.1833 37° Northeast 145 167 1,600 1,500 Climbing Philadelphia TRACON
09:39PM 40.0856 -75.3061 311° West  Level Estimated
09:39PM 39.9878 -75.1111 32° Northeast 154 177 5,500  Level New York Center
09:40PM 40.1567 -75.3280 311° West  Level Estimated
09:40PM 40.0233 -75.1081 North 141 162 6,800  Level New York Center
09:41PM 40.1927 -75.4112 300° West  Level FlightAware Approximate
09:41PM 40.0483 -75.1636 300° West 140 161 7,900  Level New York Center
09:42PM 40.2642 -75.4308 311° West  Level Estimated
09:42PM 40.0608 -75.2186 287° West 172 198 8,700  Level New York Center
09:43PM 40.0922 -75.2750 306° West 192 221 9,300 1,020 Climbing New York Center
09:44PM 40.1189 -75.3392 299° West 192 221 10,800 1,020 Climbing New York Center
09:45PM 40.1397 -75.3922 297° West 187 215 11,400 540 Climbing New York Center
09:46PM 40.1706 -75.4567 302° West 192 221 11,900 300 Climbing New York Center
09:47PM 40.1953 -75.5156 299° West 198 228 12,000  Climbing New York Center
09:48PM 40.2344 -75.5753 311° West 209 241 12,000  Level New York Center
09:49PM 40.2936 -75.6067 338° Northwest 214 246 12,000  Level New York Center
09:50PM 40.3567 -75.6492 333° Northwest 230 265 12,000  Level New York Center
09:51PM 40.4111 -75.6883 331° Northwest 230 265 12,000  Level New York Center
09:52PM 40.4700 -75.7253 334° Northwest 235 270 12,000  Level New York Center
09:53PM 40.5253 -75.7539 339° North 235 270 12,000  Level New York Center
09:54PM 40.5858 -75.7964 332° Northwest 230 265 12,000  Level New York Center
09:55PM 40.6450 -75.8283 338° Northwest 230 265 12,000  Level New York Center
09:56PM 40.7039 -75.8628 336° Northwest 230 265 12,000  Level New York Center
09:57PM 40.7583 -75.9050 330° Northwest 230 265 12,000  Level New York Center
09:58PM 40.8172 -75.9425 334° Northwest 230 265 12,000  Level New York Center
09:59PM 40.8739 -75.9769 335° Northwest 230 265 12,000  Level New York Center
10:00PM 40.9283 -76.0169 331° Northwest 230 265 12,100  Climbing New York Center
10:01PM 40.9750 -76.0453 335° Northwest 230 265 12,100  Level New York Center
10:02PM 41.0381 -76.0831 336° Northwest 230 265 12,100  Level New York Center
10:03PM 41.0986 -76.1264 332° Northwest 230 265 12,100  Level New York Center
10:04PM 41.1575 -76.1614 336° Northwest 230 265 12,100  Level New York Center
10:05PM 41.2161 -76.1964 336° Northwest 230 265 12,100  Level New York Center
10:06PM 41.2719 -76.2092 350° North 230 265 12,100  Level New York Center
10:07PM 41.3389 -76.2008 North 225 259 12,100  Level New York Center
10:08PM 41.4097 -76.2036 358° North 235 270 12,100  Level New York Center
10:09PM 41.4767 -76.1953 North 235 270 12,100 -180 Level New York Center
10:10PM 41.5417 -76.1839 North 235 270 11,800 -720 Descending New York Center
10:11PM 41.6047 -76.1750 North 242 278 10,700 -1,200 Descending New York Center
10:12PM 41.6797 -76.1728 North 261 300 9,500 -840 Descending New York Center
10:13PM 41.7633 -76.1683 North 266 306 9,100 -660 Descending New York Center
10:14PM 41.8342 -76.1631 North 253 291 8,300 -1,140 Descending New York Center
10:15PM 41.9008 -76.1628 360° North 253 291 6,900 -1,320 Descending New York Center
10:16PM 41.9600 -76.1425 14° North 247 284 5,700 -1,140 Descending New York Center
10:17PM 42.0219 -76.1114 20° North 241 277 4,700 -900 Descending New York Center
10:18PM 42.0875 -76.0886 14° North 227 261 3,900 -720 Descending New York Center
10:19PM 42.1306 -76.0531 31° Northeast 201 231 3,300 -360 Descending New York Center
10:20PM 42.1772 -76.0372 14° North 181 208 3,200 -180 Descending New York Center
10:21PM 42.2117 -76.0594 334° Northwest 145 167 3,000 -360 Descending New York Center
10:22PM 42.2419 -76.0339 32° Northeast 126 145 2,500 -540 Descending New York Center
10:23PM 42.2308 -75.9994 114° Southeast 76 87 2,000 -300 Descending New York Center
10:24PM 42.2425 -75.9722 60° Northeast 76 87 2,000  Level New York Center